sensor_id;sensor_type;location;lat;lon;timestamp;P1;P2;P0
47705;PMS5003;33471;52.104;1.318;2023-04-25T00:02:00;7;7;
47705;PMS5003;33471;52.104;1.318;2023-04-25T00:04:27;15;15;
47705;PMS5003;33471;52.104;1.318;2023-04-25T00:06:54;13;12;
47705;PMS5003;33471;52.104;1.318;2023-04-25T00:09:22;10;8;
47705;PMS5003;33471;52.104;1.318;2023-04-25T00:11:49;15;14;
47705;PMS5003;33471;52.104;1.318;2023-04-25T00:14:16;9;8;
47705;PMS5003;33471;52.104;1.318;2023-04-25T00:16:43;6;6;
47705;PMS5003;33471;52.104;1.318;2023-04-25T00:19:10;8;8;
47705;PMS5003;33471;52.104;1.318;2023-04-25T00:21:37;11;10;
47705;PMS5003;33471;52.104;1.318;2023-04-25T00:24:05;10;9;
47705;PMS5003;33471;52.104;1.318;2023-04-25T00:26:33;7;7;
47705;PMS5003;33471;52.104;1.318;2023-04-25T00:29:01;5;5;
47705;PMS5003;33471;52.104;1.318;2023-04-25T00:31:29;10;10;
47705;PMS5003;33471;52.104;1.318;2023-04-25T00:33:55;7;7;
47705;PMS5003;33471;52.104;1.318;2023-04-25T00:36:23;10;10;
47705;PMS5003;33471;52.104;1.318;2023-04-25T00:38:50;8;8;
47705;PMS5003;33471;52.104;1.318;2023-04-25T00:41:17;17;12;
47705;PMS5003;33471;52.104;1.318;2023-04-25T00:43:44;8;8;
47705;PMS5003;33471;52.104;1.318;2023-04-25T00:46:14;8;7;
47705;PMS5003;33471;52.104;1.318;2023-04-25T00:48:41;11;10;
47705;PMS5003;33471;52.104;1.318;2023-04-25T00:51:09;14;14;
47705;PMS5003;33471;52.104;1.318;2023-04-25T00:53:40;7;7;
47705;PMS5003;33471;52.104;1.318;2023-04-25T00:56:08;6;6;
47705;PMS5003;33471;52.104;1.318;2023-04-25T00:58:35;11;11;
47705;PMS5003;33471;52.104;1.318;2023-04-25T01:01:04;11;7;
47705;PMS5003;33471;52.104;1.318;2023-04-25T01:03:32;12;11;
47705;PMS5003;33471;52.104;1.318;2023-04-25T01:06:00;6;5;
47705;PMS5003;33471;52.104;1.318;2023-04-25T01:08:28;5;5;
47705;PMS5003;33471;52.104;1.318;2023-04-25T01:10:55;10;9;
47705;PMS5003;33471;52.104;1.318;2023-04-25T01:13:22;6;5;
47705;PMS5003;33471;52.104;1.318;2023-04-25T01:15:49;7;7;
47705;PMS5003;33471;52.104;1.318;2023-04-25T01:18:16;4;4;
47705;PMS5003;33471;52.104;1.318;2023-04-25T01:20:44;12;12;
47705;PMS5003;33471;52.104;1.318;2023-04-25T01:23:14;10;5;
47705;PMS5003;33471;52.104;1.318;2023-04-25T01:25:40;7;7;
47705;PMS5003;33471;52.104;1.318;2023-04-25T01:28:08;10;10;
47705;PMS5003;33471;52.104;1.318;2023-04-25T01:30:35;11;8;
47705;PMS5003;33471;52.104;1.318;2023-04-25T01:33:03;15;10;
47705;PMS5003;33471;52.104;1.318;2023-04-25T01:35:32;12;12;
47705;PMS5003;33471;52.104;1.318;2023-04-25T01:37:59;9;6;
47705;PMS5003;33471;52.104;1.318;2023-04-25T01:40:27;6;6;
47705;PMS5003;33471;52.104;1.318;2023-04-25T01:42:54;16;12;
47705;PMS5003;33471;52.104;1.318;2023-04-25T01:45:21;9;7;
47705;PMS5003;33471;52.104;1.318;2023-04-25T01:47:48;5;5;
47705;PMS5003;33471;52.104;1.318;2023-04-25T01:50:16;7;7;
47705;PMS5003;33471;52.104;1.318;2023-04-25T01:52:44;4;4;
47705;PMS5003;33471;52.104;1.318;2023-04-25T01:55:11;12;12;
47705;PMS5003;33471;52.104;1.318;2023-04-25T01:57:39;5;5;
47705;PMS5003;33471;52.104;1.318;2023-04-25T02:00:06;5;5;
47705;PMS5003;33471;52.104;1.318;2023-04-25T02:02:34;7;5;
47705;PMS5003;33471;52.104;1.318;2023-04-25T02:05:02;8;6;
47705;PMS5003;33471;52.104;1.318;2023-04-25T02:07:29;5;5;
47705;PMS5003;33471;52.104;1.318;2023-04-25T02:09:56;4;3;
47705;PMS5003;33471;52.104;1.318;2023-04-25T02:12:24;6;6;
47705;PMS5003;33471;52.104;1.318;2023-04-25T02:14:51;6;6;
47705;PMS5003;33471;52.104;1.318;2023-04-25T02:17:18;7;7;
47705;PMS5003;33471;52.104;1.318;2023-04-25T02:19:45;6;4;
47705;PMS5003;33471;52.104;1.318;2023-04-25T02:22:13;5;5;
47705;PMS5003;33471;52.104;1.318;2023-04-25T02:24:40;12;5;
47705;PMS5003;33471;52.104;1.318;2023-04-25T02:27:07;13;11;
47705;PMS5003;33471;52.104;1.318;2023-04-25T02:29:35;11;11;
47705;PMS5003;33471;52.104;1.318;2023-04-25T02:32:02;9;6;
47705;PMS5003;33471;52.104;1.318;2023-04-25T02:34:30;8;6;
47705;PMS5003;33471;52.104;1.318;2023-04-25T02:36:57;6;6;
47705;PMS5003;33471;52.104;1.318;2023-04-25T02:39:24;6;6;
47705;PMS5003;33471;52.104;1.318;2023-04-25T02:41:52;5;5;
47705;PMS5003;33471;52.104;1.318;2023-04-25T02:44:19;5;5;
47705;PMS5003;33471;52.104;1.318;2023-04-25T02:46:46;7;5;
47705;PMS5003;33471;52.104;1.318;2023-04-25T02:49:13;8;7;
47705;PMS5003;33471;52.104;1.318;2023-04-25T02:51:41;10;8;
47705;PMS5003;33471;52.104;1.318;2023-04-25T02:54:08;10;7;
47705;PMS5003;33471;52.104;1.318;2023-04-25T02:56:36;7;6;
47705;PMS5003;33471;52.104;1.318;2023-04-25T02:59:04;7;5;
47705;PMS5003;33471;52.104;1.318;2023-04-25T03:01:31;5;5;
47705;PMS5003;33471;52.104;1.318;2023-04-25T03:03:58;6;4;
47705;PMS5003;33471;52.104;1.318;2023-04-25T03:06:25;4;3;
47705;PMS5003;33471;52.104;1.318;2023-04-25T03:08:52;6;6;
47705;PMS5003;33471;52.104;1.318;2023-04-25T03:11:20;7;7;
47705;PMS5003;33471;52.104;1.318;2023-04-25T03:13:47;4;4;
47705;PMS5003;33471;52.104;1.318;2023-04-25T03:16:14;6;6;
47705;PMS5003;33471;52.104;1.318;2023-04-25T03:18:41;5;5;
47705;PMS5003;33471;52.104;1.318;2023-04-25T03:21:09;5;4;
47705;PMS5003;33471;52.104;1.318;2023-04-25T03:23:36;4;3;
47705;PMS5003;33471;52.104;1.318;2023-04-25T03:26:04;7;7;
47705;PMS5003;33471;52.104;1.318;2023-04-25T03:28:31;9;9;
47705;PMS5003;33471;52.104;1.318;2023-04-25T03:30:58;7;5;
47705;PMS5003;33471;52.104;1.318;2023-04-25T03:33:25;5;5;
47705;PMS5003;33471;52.104;1.318;2023-04-25T03:35:52;8;8;
47705;PMS5003;33471;52.104;1.318;2023-04-25T03:38:20;8;7;
47705;PMS5003;33471;52.104;1.318;2023-04-25T03:40:47;5;5;
47705;PMS5003;33471;52.104;1.318;2023-04-25T03:43:14;7;6;
47705;PMS5003;33471;52.104;1.318;2023-04-25T03:45:41;7;7;
47705;PMS5003;33471;52.104;1.318;2023-04-25T03:48:08;4;4;
47705;PMS5003;33471;52.104;1.318;2023-04-25T03:50:36;5;3;
47705;PMS5003;33471;52.104;1.318;2023-04-25T03:53:03;3;3;
47705;PMS5003;33471;52.104;1.318;2023-04-25T03:55:30;5;4;
47705;PMS5003;33471;52.104;1.318;2023-04-25T03:57:58;5;4;
47705;PMS5003;33471;52.104;1.318;2023-04-25T04:00:25;8;8;
47705;PMS5003;33471;52.104;1.318;2023-04-25T04:02:53;13;11;
47705;PMS5003;33471;52.104;1.318;2023-04-25T04:05:20;7;6;
47705;PMS5003;33471;52.104;1.318;2023-04-25T04:07:47;4;4;
47705;PMS5003;33471;52.104;1.318;2023-04-25T04:10:14;4;4;
47705;PMS5003;33471;52.104;1.318;2023-04-25T04:12:41;8;8;
47705;PMS5003;33471;52.104;1.318;2023-04-25T04:15:09;9;6;
47705;PMS5003;33471;52.104;1.318;2023-04-25T04:17:36;11;11;
47705;PMS5003;33471;52.104;1.318;2023-04-25T04:20:04;5;5;
47705;PMS5003;33471;52.104;1.318;2023-04-25T04:22:33;4;4;
47705;PMS5003;33471;52.104;1.318;2023-04-25T04:25:01;3;3;
47705;PMS5003;33471;52.104;1.318;2023-04-25T04:27:28;4;4;
47705;PMS5003;33471;52.104;1.318;2023-04-25T04:29:55;5;5;
47705;PMS5003;33471;52.104;1.318;2023-04-25T04:32:22;8;6;
47705;PMS5003;33471;52.104;1.318;2023-04-25T04:34:50;5;5;
47705;PMS5003;33471;52.104;1.318;2023-04-25T04:37:17;4;4;
47705;PMS5003;33471;52.104;1.318;2023-04-25T04:39:44;5;4;
47705;PMS5003;33471;52.104;1.318;2023-04-25T04:42:12;8;7;
47705;PMS5003;33471;52.104;1.318;2023-04-25T04:44:39;5;5;
47705;PMS5003;33471;52.104;1.318;2023-04-25T04:47:07;7;5;
47705;PMS5003;33471;52.104;1.318;2023-04-25T04:49:34;6;6;
47705;PMS5003;33471;52.104;1.318;2023-04-25T04:52:02;3;3;
47705;PMS5003;33471;52.104;1.318;2023-04-25T04:54:28;5;5;
47705;PMS5003;33471;52.104;1.318;2023-04-25T04:56:56;4;4;
47705;PMS5003;33471;52.104;1.318;2023-04-25T04:59:23;5;5;
47705;PMS5003;33471;52.104;1.318;2023-04-25T05:01:50;7;5;
47705;PMS5003;33471;52.104;1.318;2023-04-25T05:04:17;10;6;
47705;PMS5003;33471;52.104;1.318;2023-04-25T05:06:44;2;2;
47705;PMS5003;33471;52.104;1.318;2023-04-25T05:09:11;9;9;
47705;PMS5003;33471;52.104;1.318;2023-04-25T05:11:38;3;1;
47705;PMS5003;33471;52.104;1.318;2023-04-25T05:14:06;3;3;
47705;PMS5003;33471;52.104;1.318;2023-04-25T05:16:33;5;3;
47705;PMS5003;33471;52.104;1.318;2023-04-25T05:19:00;4;4;
47705;PMS5003;33471;52.104;1.318;2023-04-25T05:21:27;5;5;
47705;PMS5003;33471;52.104;1.318;2023-04-25T05:23:54;4;4;
47705;PMS5003;33471;52.104;1.318;2023-04-25T05:26:22;3;3;
47705;PMS5003;33471;52.104;1.318;2023-04-25T05:28:49;5;3;
47705;PMS5003;33471;52.104;1.318;2023-04-25T05:31:16;4;4;
47705;PMS5003;33471;52.104;1.318;2023-04-25T05:33:43;7;7;
47705;PMS5003;33471;52.104;1.318;2023-04-25T05:36:10;4;4;
47705;PMS5003;33471;52.104;1.318;2023-04-25T05:38:37;3;3;
47705;PMS5003;33471;52.104;1.318;2023-04-25T05:41:05;5;5;
47705;PMS5003;33471;52.104;1.318;2023-04-25T05:43:32;3;3;
47705;PMS5003;33471;52.104;1.318;2023-04-25T05:45:59;6;3;
47705;PMS5003;33471;52.104;1.318;2023-04-25T05:48:26;8;7;
47705;PMS5003;33471;52.104;1.318;2023-04-25T05:50:54;4;4;
47705;PMS5003;33471;52.104;1.318;2023-04-25T05:53:21;6;6;
47705;PMS5003;33471;52.104;1.318;2023-04-25T05:55:47;5;5;
47705;PMS5003;33471;52.104;1.318;2023-04-25T05:58:14;7;7;
47705;PMS5003;33471;52.104;1.318;2023-04-25T06:00:41;4;4;
47705;PMS5003;33471;52.104;1.318;2023-04-25T06:03:09;9;9;
47705;PMS5003;33471;52.104;1.318;2023-04-25T06:05:36;11;11;
47705;PMS5003;33471;52.104;1.318;2023-04-25T06:08:04;14;14;
47705;PMS5003;33471;52.104;1.318;2023-04-25T06:10:31;18;17;
47705;PMS5003;33471;52.104;1.318;2023-04-25T06:12:58;11;10;
47705;PMS5003;33471;52.104;1.318;2023-04-25T06:15:25;8;6;
47705;PMS5003;33471;52.104;1.318;2023-04-25T06:17:52;7;7;
47705;PMS5003;33471;52.104;1.318;2023-04-25T06:20:20;4;4;
47705;PMS5003;33471;52.104;1.318;2023-04-25T06:22:46;5;5;
47705;PMS5003;33471;52.104;1.318;2023-04-25T06:25:14;7;5;
47705;PMS5003;33471;52.104;1.318;2023-04-25T06:27:41;6;6;
47705;PMS5003;33471;52.104;1.318;2023-04-25T06:30:09;4;4;
47705;PMS5003;33471;52.104;1.318;2023-04-25T06:32:38;8;7;
47705;PMS5003;33471;52.104;1.318;2023-04-25T06:35:06;8;6;
47705;PMS5003;33471;52.104;1.318;2023-04-25T06:37:34;5;5;
47705;PMS5003;33471;52.104;1.318;2023-04-25T06:40:01;3;3;
47705;PMS5003;33471;52.104;1.318;2023-04-25T06:42:28;5;5;
47705;PMS5003;33471;52.104;1.318;2023-04-25T06:44:55;4;4;
47705;PMS5003;33471;52.104;1.318;2023-04-25T06:47:22;5;5;
47705;PMS5003;33471;52.104;1.318;2023-04-25T06:49:49;7;5;
47705;PMS5003;33471;52.104;1.318;2023-04-25T06:52:16;8;8;
47705;PMS5003;33471;52.104;1.318;2023-04-25T06:54:43;6;5;
47705;PMS5003;33471;52.104;1.318;2023-04-25T06:57:10;6;6;
47705;PMS5003;33471;52.104;1.318;2023-04-25T06:59:37;6;6;
47705;PMS5003;33471;52.104;1.318;2023-04-25T07:02:05;5;5;
47705;PMS5003;33471;52.104;1.318;2023-04-25T07:04:32;6;6;
47705;PMS5003;33471;52.104;1.318;2023-04-25T07:06:59;4;4;
47705;PMS5003;33471;52.104;1.318;2023-04-25T07:09:27;1;1;
47705;PMS5003;33471;52.104;1.318;2023-04-25T07:11:54;3;3;
47705;PMS5003;33471;52.104;1.318;2023-04-25T07:14:21;1;1;
47705;PMS5003;33471;52.104;1.318;2023-04-25T07:16:48;3;3;
47705;PMS5003;33471;52.104;1.318;2023-04-25T07:19:15;2;2;
47705;PMS5003;33471;52.104;1.318;2023-04-25T07:21:42;2;2;
47705;PMS5003;33471;52.104;1.318;2023-04-25T07:24:10;3;3;
47705;PMS5003;33471;52.104;1.318;2023-04-25T07:26:37;4;4;
47705;PMS5003;33471;52.104;1.318;2023-04-25T07:29:05;7;7;
47705;PMS5003;33471;52.104;1.318;2023-04-25T07:31:32;11;11;
47705;PMS5003;33471;52.104;1.318;2023-04-25T07:33:59;3;3;
47705;PMS5003;33471;52.104;1.318;2023-04-25T07:36:27;4;4;
47705;PMS5003;33471;52.104;1.318;2023-04-25T07:38:54;4;4;
47705;PMS5003;33471;52.104;1.318;2023-04-25T07:41:21;8;8;
47705;PMS5003;33471;52.104;1.318;2023-04-25T07:43:49;2;2;
47705;PMS5003;33471;52.104;1.318;2023-04-25T07:46:16;3;3;
47705;PMS5003;33471;52.104;1.318;2023-04-25T07:48:43;4;4;
47705;PMS5003;33471;52.104;1.318;2023-04-25T07:51:10;3;3;
47705;PMS5003;33471;52.104;1.318;2023-04-25T07:53:38;3;3;
47705;PMS5003;33471;52.104;1.318;2023-04-25T07:56:06;2;2;
47705;PMS5003;33471;52.104;1.318;2023-04-25T07:58:33;3;3;
47705;PMS5003;33471;52.104;1.318;2023-04-25T08:01:00;4;4;
47705;PMS5003;33471;52.104;1.318;2023-04-25T08:03:27;7;6;
47705;PMS5003;33471;52.104;1.318;2023-04-25T08:05:54;9;9;
47705;PMS5003;33471;52.104;1.318;2023-04-25T08:08:21;5;4;
47705;PMS5003;33471;52.104;1.318;2023-04-25T08:10:48;8;8;
47705;PMS5003;33471;52.104;1.318;2023-04-25T08:13:15;9;9;
47705;PMS5003;33471;52.104;1.318;2023-04-25T08:15:42;3;2;
47705;PMS5003;33471;52.104;1.318;2023-04-25T08:18:09;3;3;
47705;PMS5003;33471;52.104;1.318;2023-04-25T08:20:36;4;3;
47705;PMS5003;33471;52.104;1.318;2023-04-25T08:23:03;7;7;
47705;PMS5003;33471;52.104;1.318;2023-04-25T08:25:30;4;4;
47705;PMS5003;33471;52.104;1.318;2023-04-25T08:27:57;2;2;
47705;PMS5003;33471;52.104;1.318;2023-04-25T08:30:25;4;4;
47705;PMS5003;33471;52.104;1.318;2023-04-25T08:32:52;4;3;
47705;PMS5003;33471;52.104;1.318;2023-04-25T08:35:19;3;3;
47705;PMS5003;33471;52.104;1.318;2023-04-25T08:37:47;3;2;
47705;PMS5003;33471;52.104;1.318;2023-04-25T08:40:14;3;2;
47705;PMS5003;33471;52.104;1.318;2023-04-25T08:42:42;2;2;
47705;PMS5003;33471;52.104;1.318;2023-04-25T08:45:10;2;2;
47705;PMS5003;33471;52.104;1.318;2023-04-25T08:47:38;2;2;
47705;PMS5003;33471;52.104;1.318;2023-04-25T08:50:06;2;2;
47705;PMS5003;33471;52.104;1.318;2023-04-25T08:52:35;7;6;
47705;PMS5003;33471;52.104;1.318;2023-04-25T08:55:06;3;3;
47705;PMS5003;33471;52.104;1.318;2023-04-25T08:57:38;2;2;
47705;PMS5003;33471;52.104;1.318;2023-04-25T09:00:08;3;2;
47705;PMS5003;33471;52.104;1.318;2023-04-25T09:02:36;5;5;
47705;PMS5003;33471;52.104;1.318;2023-04-25T09:05:06;2;2;
47705;PMS5003;33471;52.104;1.318;2023-04-25T09:07:34;4;4;
47705;PMS5003;33471;52.104;1.318;2023-04-25T09:10:01;5;5;
47705;PMS5003;33471;52.104;1.318;2023-04-25T09:12:28;2;2;
47705;PMS5003;33471;52.104;1.318;2023-04-25T09:15:04;4;4;
47705;PMS5003;33471;52.104;1.318;2023-04-25T09:17:33;3;3;
47705;PMS5003;33471;52.104;1.318;2023-04-25T09:20:07;3;3;
47705;PMS5003;33471;52.104;1.318;2023-04-25T09:22:36;3;3;
47705;PMS5003;33471;52.104;1.318;2023-04-25T09:25:07;9;9;
47705;PMS5003;33471;52.104;1.318;2023-04-25T09:27:35;4;4;
47705;PMS5003;33471;52.104;1.318;2023-04-25T09:30:03;4;4;
47705;PMS5003;33471;52.104;1.318;2023-04-25T09:32:31;4;4;
47705;PMS5003;33471;52.104;1.318;2023-04-25T09:34:58;4;4;
47705;PMS5003;33471;52.104;1.318;2023-04-25T09:37:26;7;6;
47705;PMS5003;33471;52.104;1.318;2023-04-25T09:39:55;3;3;
47705;PMS5003;33471;52.104;1.318;2023-04-25T09:42:24;4;4;
47705;PMS5003;33471;52.104;1.318;2023-04-25T09:44:52;4;4;
47705;PMS5003;33471;52.104;1.318;2023-04-25T09:47:22;5;5;
47705;PMS5003;33471;52.104;1.318;2023-04-25T09:49:49;5;4;
47705;PMS5003;33471;52.104;1.318;2023-04-25T09:52:19;3;3;
47705;PMS5003;33471;52.104;1.318;2023-04-25T09:54:48;3;3;
47705;PMS5003;33471;52.104;1.318;2023-04-25T09:57:17;4;3;
47705;PMS5003;33471;52.104;1.318;2023-04-25T09:59:45;2;2;
47705;PMS5003;33471;52.104;1.318;2023-04-25T10:02:14;4;4;
47705;PMS5003;33471;52.104;1.318;2023-04-25T10:04:44;3;3;
47705;PMS5003;33471;52.104;1.318;2023-04-25T10:07:14;4;3;
47705;PMS5003;33471;52.104;1.318;2023-04-25T10:09:44;3;3;
47705;PMS5003;33471;52.104;1.318;2023-04-25T10:12:14;3;3;
47705;PMS5003;33471;52.104;1.318;2023-04-25T10:14:42;3;3;
47705;PMS5003;33471;52.104;1.318;2023-04-25T10:17:10;2;2;
47705;PMS5003;33471;52.104;1.318;2023-04-25T10:19:37;2;2;
47705;PMS5003;33471;52.104;1.318;2023-04-25T10:22:07;2;1;
47705;PMS5003;33471;52.104;1.318;2023-04-25T10:24:38;2;2;
47705;PMS5003;33471;52.104;1.318;2023-04-25T10:27:06;4;1;
47705;PMS5003;33471;52.104;1.318;2023-04-25T10:29:34;1;1;
47705;PMS5003;33471;52.104;1.318;2023-04-25T10:32:01;2;1;
47705;PMS5003;33471;52.104;1.318;2023-04-25T10:34:44;2;2;
47705;PMS5003;33471;52.104;1.318;2023-04-25T10:37:12;2;2;
47705;PMS5003;33471;52.104;1.318;2023-04-25T10:39:40;4;2;
47705;PMS5003;33471;52.104;1.318;2023-04-25T10:42:08;2;2;
47705;PMS5003;33471;52.104;1.318;2023-04-25T10:44:36;3;3;
47705;PMS5003;33471;52.104;1.318;2023-04-25T10:47:06;3;3;
47705;PMS5003;33471;52.104;1.318;2023-04-25T10:49:41;4;4;
47705;PMS5003;33471;52.104;1.318;2023-04-25T10:52:11;4;2;
47705;PMS5003;33471;52.104;1.318;2023-04-25T10:54:41;1;1;
47705;PMS5003;33471;52.104;1.318;2023-04-25T10:57:26;1;1;
47705;PMS5003;33471;52.104;1.318;2023-04-25T10:59:58;3;3;
47705;PMS5003;33471;52.104;1.318;2023-04-25T11:02:26;3;1;
47705;PMS5003;33471;52.104;1.318;2023-04-25T11:04:54;3;3;
47705;PMS5003;33471;52.104;1.318;2023-04-25T11:07:23;3;3;
47705;PMS5003;33471;52.104;1.318;2023-04-25T11:10:01;2;2;
47705;PMS5003;33471;52.104;1.318;2023-04-25T11:12:30;3;3;
47705;PMS5003;33471;52.104;1.318;2023-04-25T11:14:59;4;4;
47705;PMS5003;33471;52.104;1.318;2023-04-25T11:17:27;7;7;
47705;PMS5003;33471;52.104;1.318;2023-04-25T11:19:55;3;3;
47705;PMS5003;33471;52.104;1.318;2023-04-25T11:22:22;8;8;
47705;PMS5003;33471;52.104;1.318;2023-04-25T11:24:49;3;3;
47705;PMS5003;33471;52.104;1.318;2023-04-25T11:27:16;2;2;
47705;PMS5003;33471;52.104;1.318;2023-04-25T11:29:44;7;6;
47705;PMS5003;33471;52.104;1.318;2023-04-25T11:32:11;1;1;
47705;PMS5003;33471;52.104;1.318;2023-04-25T11:34:38;3;3;
47705;PMS5003;33471;52.104;1.318;2023-04-25T11:37:08;3;3;
47705;PMS5003;33471;52.104;1.318;2023-04-25T11:39:36;3;3;
47705;PMS5003;33471;52.104;1.318;2023-04-25T11:42:03;2;2;
47705;PMS5003;33471;52.104;1.318;2023-04-25T11:44:30;3;3;
47705;PMS5003;33471;52.104;1.318;2023-04-25T11:46:58;3;3;
47705;PMS5003;33471;52.104;1.318;2023-04-25T11:49:25;3;2;
47705;PMS5003;33471;52.104;1.318;2023-04-25T11:51:57;4;3;
47705;PMS5003;33471;52.104;1.318;2023-04-25T11:54:24;3;2;
47705;PMS5003;33471;52.104;1.318;2023-04-25T11:56:51;4;4;
47705;PMS5003;33471;52.104;1.318;2023-04-25T11:59:18;2;1;
47705;PMS5003;33471;52.104;1.318;2023-04-25T12:01:50;1;1;
47705;PMS5003;33471;52.104;1.318;2023-04-25T12:04:18;2;2;
47705;PMS5003;33471;52.104;1.318;2023-04-25T12:06:47;3;3;
47705;PMS5003;33471;52.104;1.318;2023-04-25T12:09:16;1;1;
47705;PMS5003;33471;52.104;1.318;2023-04-25T12:11:45;2;2;
47705;PMS5003;33471;52.104;1.318;2023-04-25T12:14:20;0;0;
47705;PMS5003;33471;52.104;1.318;2023-04-25T12:16:49;2;2;
47705;PMS5003;33471;52.104;1.318;2023-04-25T12:19:17;3;3;
47705;PMS5003;33471;52.104;1.318;2023-04-25T12:21:46;3;2;
47705;PMS5003;33471;52.104;1.318;2023-04-25T12:24:16;2;2;
47705;PMS5003;33471;52.104;1.318;2023-04-25T12:26:50;2;2;
47705;PMS5003;33471;52.104;1.318;2023-04-25T12:29:19;1;1;
47705;PMS5003;33471;52.104;1.318;2023-04-25T12:31:47;2;2;
47705;PMS5003;33471;52.104;1.318;2023-04-25T12:34:15;0;0;
47705;PMS5003;33471;52.104;1.318;2023-04-25T12:36:43;2;2;
47705;PMS5003;33471;52.104;1.318;2023-04-25T12:39:14;4;3;
47705;PMS5003;33471;52.104;1.318;2023-04-25T12:41:41;4;3;
47705;PMS5003;33471;52.104;1.318;2023-04-25T12:44:09;3;3;
47705;PMS5003;33471;52.104;1.318;2023-04-25T12:46:38;2;2;
47705;PMS5003;33471;52.104;1.318;2023-04-25T12:49:06;2;2;
47705;PMS5003;33471;52.104;1.318;2023-04-25T12:51:34;4;4;
47705;PMS5003;33471;52.104;1.318;2023-04-25T12:54:03;4;4;
47705;PMS5003;33471;52.104;1.318;2023-04-25T12:56:31;3;3;
47705;PMS5003;33471;52.104;1.318;2023-04-25T12:58:58;3;3;
47705;PMS5003;33471;52.104;1.318;2023-04-25T13:01:26;2;2;
47705;PMS5003;33471;52.104;1.318;2023-04-25T13:03:53;3;3;
47705;PMS5003;33471;52.104;1.318;2023-04-25T13:06:20;1;1;
47705;PMS5003;33471;52.104;1.318;2023-04-25T13:08:48;3;3;
47705;PMS5003;33471;52.104;1.318;2023-04-25T13:11:15;2;2;
47705;PMS5003;33471;52.104;1.318;2023-04-25T13:13:42;3;3;
47705;PMS5003;33471;52.104;1.318;2023-04-25T13:16:10;5;5;
47705;PMS5003;33471;52.104;1.318;2023-04-25T13:18:37;2;2;
47705;PMS5003;33471;52.104;1.318;2023-04-25T13:21:04;4;4;
47705;PMS5003;33471;52.104;1.318;2023-04-25T13:23:31;2;2;
47705;PMS5003;33471;52.104;1.318;2023-04-25T13:25:58;3;3;
47705;PMS5003;33471;52.104;1.318;2023-04-25T13:28:26;2;2;
47705;PMS5003;33471;52.104;1.318;2023-04-25T13:30:54;3;3;
47705;PMS5003;33471;52.104;1.318;2023-04-25T13:33:21;1;1;
47705;PMS5003;33471;52.104;1.318;2023-04-25T13:35:48;2;2;
47705;PMS5003;33471;52.104;1.318;2023-04-25T13:38:16;2;2;
47705;PMS5003;33471;52.104;1.318;2023-04-25T13:40:43;2;2;
47705;PMS5003;33471;52.104;1.318;2023-04-25T13:43:10;1;1;
47705;PMS5003;33471;52.104;1.318;2023-04-25T13:45:37;1;1;
47705;PMS5003;33471;52.104;1.318;2023-04-25T13:48:05;2;2;
47705;PMS5003;33471;52.104;1.318;2023-04-25T13:50:32;3;3;
47705;PMS5003;33471;52.104;1.318;2023-04-25T13:52:59;3;3;
47705;PMS5003;33471;52.104;1.318;2023-04-25T13:55:26;1;1;
47705;PMS5003;33471;52.104;1.318;2023-04-25T13:57:53;3;3;
47705;PMS5003;33471;52.104;1.318;2023-04-25T14:00:21;4;3;
47705;PMS5003;33471;52.104;1.318;2023-04-25T14:02:48;1;1;
47705;PMS5003;33471;52.104;1.318;2023-04-25T14:05:15;1;1;
47705;PMS5003;33471;52.104;1.318;2023-04-25T14:07:43;7;7;
47705;PMS5003;33471;52.104;1.318;2023-04-25T14:10:10;7;5;
47705;PMS5003;33471;52.104;1.318;2023-04-25T14:12:38;1;1;
47705;PMS5003;33471;52.104;1.318;2023-04-25T14:15:06;1;1;
47705;PMS5003;33471;52.104;1.318;2023-04-25T14:17:33;1;1;
47705;PMS5003;33471;52.104;1.318;2023-04-25T14:20:01;1;1;
47705;PMS5003;33471;52.104;1.318;2023-04-25T14:22:28;3;3;
47705;PMS5003;33471;52.104;1.318;2023-04-25T14:24:55;2;2;
47705;PMS5003;33471;52.104;1.318;2023-04-25T14:27:22;2;2;
47705;PMS5003;33471;52.104;1.318;2023-04-25T14:29:49;3;3;
47705;PMS5003;33471;52.104;1.318;2023-04-25T14:32:16;3;3;
47705;PMS5003;33471;52.104;1.318;2023-04-25T14:34:43;3;3;
47705;PMS5003;33471;52.104;1.318;2023-04-25T14:37:10;2;2;
47705;PMS5003;33471;52.104;1.318;2023-04-25T14:39:37;4;4;
47705;PMS5003;33471;52.104;1.318;2023-04-25T14:42:04;3;3;
47705;PMS5003;33471;52.104;1.318;2023-04-25T14:44:31;4;4;
47705;PMS5003;33471;52.104;1.318;2023-04-25T14:46:58;4;4;
47705;PMS5003;33471;52.104;1.318;2023-04-25T14:49:25;3;2;
47705;PMS5003;33471;52.104;1.318;2023-04-25T14:51:52;5;3;
47705;PMS5003;33471;52.104;1.318;2023-04-25T14:54:19;4;4;
47705;PMS5003;33471;52.104;1.318;2023-04-25T14:56:46;4;4;
47705;PMS5003;33471;52.104;1.318;2023-04-25T14:59:13;4;4;
47705;PMS5003;33471;52.104;1.318;2023-04-25T15:01:41;5;5;
47705;PMS5003;33471;52.104;1.318;2023-04-25T15:04:08;3;3;
47705;PMS5003;33471;52.104;1.318;2023-04-25T15:06:35;5;5;
47705;PMS5003;33471;52.104;1.318;2023-04-25T15:09:03;2;2;
47705;PMS5003;33471;52.104;1.318;2023-04-25T15:11:30;5;3;
47705;PMS5003;33471;52.104;1.318;2023-04-25T15:13:57;2;2;
47705;PMS5003;33471;52.104;1.318;2023-04-25T15:16:24;3;3;
47705;PMS5003;33471;52.104;1.318;2023-04-25T15:18:51;3;3;
47705;PMS5003;33471;52.104;1.318;2023-04-25T15:21:18;4;4;
47705;PMS5003;33471;52.104;1.318;2023-04-25T15:23:45;2;2;
47705;PMS5003;33471;52.104;1.318;2023-04-25T15:26:13;3;3;
47705;PMS5003;33471;52.104;1.318;2023-04-25T15:28:40;1;1;
47705;PMS5003;33471;52.104;1.318;2023-04-25T15:31:08;4;4;
47705;PMS5003;33471;52.104;1.318;2023-04-25T15:33:35;1;1;
47705;PMS5003;33471;52.104;1.318;2023-04-25T15:36:03;4;4;
47705;PMS5003;33471;52.104;1.318;2023-04-25T15:38:30;4;4;
47705;PMS5003;33471;52.104;1.318;2023-04-25T15:40:58;3;3;
47705;PMS5003;33471;52.104;1.318;2023-04-25T15:43:25;2;1;
47705;PMS5003;33471;52.104;1.318;2023-04-25T15:45:52;3;2;
47705;PMS5003;33471;52.104;1.318;2023-04-25T15:48:20;3;3;
47705;PMS5003;33471;52.104;1.318;2023-04-25T15:50:47;5;4;
47705;PMS5003;33471;52.104;1.318;2023-04-25T15:53:14;4;3;
47705;PMS5003;33471;52.104;1.318;2023-04-25T15:55:41;4;4;
47705;PMS5003;33471;52.104;1.318;2023-04-25T15:58:09;3;3;
47705;PMS5003;33471;52.104;1.318;2023-04-25T16:00:36;3;3;
47705;PMS5003;33471;52.104;1.318;2023-04-25T16:03:03;5;3;
47705;PMS5003;33471;52.104;1.318;2023-04-25T16:05:30;5;4;
47705;PMS5003;33471;52.104;1.318;2023-04-25T16:07:57;5;3;
47705;PMS5003;33471;52.104;1.318;2023-04-25T16:10:25;3;3;
47705;PMS5003;33471;52.104;1.318;2023-04-25T16:12:52;4;4;
47705;PMS5003;33471;52.104;1.318;2023-04-25T16:15:19;3;3;
47705;PMS5003;33471;52.104;1.318;2023-04-25T16:17:46;3;3;
47705;PMS5003;33471;52.104;1.318;2023-04-25T16:20:14;4;4;
47705;PMS5003;33471;52.104;1.318;2023-04-25T16:22:41;2;1;
47705;PMS5003;33471;52.104;1.318;2023-04-25T16:25:10;5;5;
47705;PMS5003;33471;52.104;1.318;2023-04-25T16:27:37;5;3;
47705;PMS5003;33471;52.104;1.318;2023-04-25T16:30:05;2;2;
47705;PMS5003;33471;52.104;1.318;2023-04-25T16:32:34;8;8;
47705;PMS5003;33471;52.104;1.318;2023-04-25T16:35:02;6;5;
47705;PMS5003;33471;52.104;1.318;2023-04-25T16:37:29;4;3;
47705;PMS5003;33471;52.104;1.318;2023-04-25T16:39:56;5;4;
47705;PMS5003;33471;52.104;1.318;2023-04-25T16:42:23;4;4;
47705;PMS5003;33471;52.104;1.318;2023-04-25T16:44:50;5;3;
47705;PMS5003;33471;52.104;1.318;2023-04-25T16:47:17;5;5;
47705;PMS5003;33471;52.104;1.318;2023-04-25T16:49:44;5;5;
47705;PMS5003;33471;52.104;1.318;2023-04-25T16:52:11;7;7;